sensor_id;sensor_type;location;lat;lon;timestamp;pressure;altitude;pressure_sealevel;temperature;humidity
6395;BME280;3230;42.588;23.358;2024-01-30T00:02:16;92704.88;;;-3.50;100.00
6395;BME280;3230;42.588;23.358;2024-01-30T00:04:42;92704.16;;;-3.42;100.00
6395;BME280;3230;42.588;23.358;2024-01-30T00:07:07;92704.78;;;-3.40;100.00
6395;BME280;3230;42.588;23.358;2024-01-30T00:09:32;92703.19;;;-3.41;100.00
6395;BME280;3230;42.588;23.358;2024-01-30T00:11:58;92706.75;;;-3.34;100.00
6395;BME280;3230;42.588;23.358;2024-01-30T00:14:23;92708.38;;;-3.33;100.00
6395;BME280;3230;42.588;23.358;2024-01-30T00:16:50;92709.03;;;-3.31;100.00
6395;BME280;3230;42.588;23.358;2024-01-30T00:19:16;92708.72;;;-3.28;100.00
6395;BME280;3230;42.588;23.358;2024-01-30T00:21:41;92708.09;;;-3.30;100.00
6395;BME280;3230;42.588;23.358;2024-01-30T00:24:07;92708.13;;;-3.22;99.38
6395;BME280;3230;42.588;23.358;2024-01-30T00:26:32;92717.81;;;-3.15;98.95
6395;BME280;3230;42.588;23.358;2024-01-30T00:28:58;92718.47;;;-3.13;98.50
6395;BME280;3230;42.588;23.358;2024-01-30T00:31:24;92718.81;;;-3.08;98.21
6395;BME280;3230;42.588;23.358;2024-01-30T00:33:49;92724.25;;;-3.11;97.67
6395;BME280;3230;42.588;23.358;2024-01-30T00:36:14;92718.91;;;-3.18;97.50
6395;BME280;3230;42.588;23.358;2024-01-30T00:38:40;92721.44;;;-3.26;97.18
6395;BME280;3230;42.588;23.358;2024-01-30T00:41:07;92715.78;;;-3.48;97.48
6395;BME280;3230;42.588;23.358;2024-01-30T00:43:33;92718.63;;;-3.51;97.47
6395;BME280;3230;42.588;23.358;2024-01-30T00:45:59;92719.47;;;-3.50;97.21
6395;BME280;3230;42.588;23.358;2024-01-30T00:48:24;92724.59;;;-3.50;96.94
6395;BME280;3230;42.588;23.358;2024-01-30T00:50:50;92716.97;;;-3.60;96.91
6395;BME280;3230;42.588;23.358;2024-01-30T00:53:15;92716.59;;;-3.83;97.67
6395;BME280;3230;42.588;23.358;2024-01-30T00:55:41;92716.34;;;-3.90;97.99
6395;BME280;3230;42.588;23.358;2024-01-30T00:58:06;92707.41;;;-4.04;97.84
6395;BME280;3230;42.588;23.358;2024-01-30T01:00:32;92708.63;;;-4.08;98.04
6395;BME280;3230;42.588;23.358;2024-01-30T01:03:01;92712.66;;;-4.06;97.90
6395;BME280;3230;42.588;23.358;2024-01-30T01:05:27;92706.81;;;-4.16;98.57
6395;BME280;3230;42.588;23.358;2024-01-30T01:07:52;92700.78;;;-4.25;98.54
6395;BME280;3230;42.588;23.358;2024-01-30T01:10:18;92713.97;;;-4.20;98.52
6395;BME280;3230;42.588;23.358;2024-01-30T01:12:47;92699.97;;;-4.25;98.50
6395;BME280;3230;42.588;23.358;2024-01-30T01:15:13;92702.44;;;-4.34;98.49
6395;BME280;3230;42.588;23.358;2024-01-30T01:17:38;92702.16;;;-4.30;98.49
6395;BME280;3230;42.588;23.358;2024-01-30T01:20:05;92706.00;;;-4.44;98.19
6395;BME280;3230;42.588;23.358;2024-01-30T01:22:31;92698.50;;;-4.56;97.98
6395;BME280;3230;42.588;23.358;2024-01-30T01:24:57;92698.28;;;-4.62;98.42
6395;BME280;3230;42.588;23.358;2024-01-30T01:27:23;92701.22;;;-4.57;98.52
6395;BME280;3230;42.588;23.358;2024-01-30T01:29:48;92705.78;;;-4.61;98.03
6395;BME280;3230;42.588;23.358;2024-01-30T01:32:14;92719.28;;;-4.69;97.70
6395;BME280;3230;42.588;23.358;2024-01-30T01:34:39;92712.88;;;-4.83;98.01
6395;BME280;3230;42.588;23.358;2024-01-30T01:37:05;92706.53;;;-4.78;98.38
6395;BME280;3230;42.588;23.358;2024-01-30T01:39:30;92709.59;;;-4.65;97.85
6395;BME280;3230;42.588;23.358;2024-01-30T01:41:56;92717.91;;;-4.63;97.68
6395;BME280;3230;42.588;23.358;2024-01-30T01:44:21;92720.19;;;-4.60;97.84
6395;BME280;3230;42.588;23.358;2024-01-30T01:46:47;92696.97;;;-4.76;97.39
6395;BME280;3230;42.588;23.358;2024-01-30T01:49:13;92724.09;;;-4.56;97.61
6395;BME280;3230;42.588;23.358;2024-01-30T01:51:40;92718.84;;;-4.54;97.45
6395;BME280;3230;42.588;23.358;2024-01-30T01:54:06;92718.41;;;-4.50;97.50
6395;BME280;3230;42.588;23.358;2024-01-30T01:56:33;92720.78;;;-4.38;97.71
6395;BME280;3230;42.588;23.358;2024-01-30T01:59:05;92715.09;;;-4.32;97.57
6395;BME280;3230;42.588;23.358;2024-01-30T02:01:33;92709.00;;;-4.21;97.53
6395;BME280;3230;42.588;23.358;2024-01-30T02:03:59;92723.25;;;-4.19;97.37
6395;BME280;3230;42.588;23.358;2024-01-30T02:06:25;92726.44;;;-4.07;96.08
6395;BME280;3230;42.588;23.358;2024-01-30T02:08:51;92722.47;;;-4.01;95.16
6395;BME280;3230;42.588;23.358;2024-01-30T02:11:16;92730.00;;;-3.99;94.72
6395;BME280;3230;42.588;23.358;2024-01-30T02:13:42;92724.09;;;-4.00;95.24
6395;BME280;3230;42.588;23.358;2024-01-30T02:16:07;92716.25;;;-3.98;95.57
6395;BME280;3230;42.588;23.358;2024-01-30T02:18:33;92720.97;;;-3.94;94.92
6395;BME280;3230;42.588;23.358;2024-01-30T02:23:27;92707.38;;;-3.76;95.14
6395;BME280;3230;42.588;23.358;2024-01-30T02:25:52;92723.53;;;-3.76;94.42
6395;BME280;3230;42.588;23.358;2024-01-30T02:28:19;92718.94;;;-3.54;92.89
6395;BME280;3230;42.588;23.358;2024-01-30T02:30:45;92724.28;;;-3.47;92.42
6395;BME280;3230;42.588;23.358;2024-01-30T02:33:12;92722.16;;;-3.34;92.48
6395;BME280;3230;42.588;23.358;2024-01-30T02:35:37;92719.47;;;-3.32;92.14
6395;BME280;3230;42.588;23.358;2024-01-30T02:38:03;92722.66;;;-3.30;92.06
6395;BME280;3230;42.588;23.358;2024-01-30T02:40:29;92712.84;;;-3.35;92.28
6395;BME280;3230;42.588;23.358;2024-01-30T02:42:54;92712.47;;;-3.22;92.23
6395;BME280;3230;42.588;23.358;2024-01-30T02:45:20;92710.84;;;-3.23;92.82
6395;BME280;3230;42.588;23.358;2024-01-30T02:47:45;92724.53;;;-3.14;92.89
6395;BME280;3230;42.588;23.358;2024-01-30T02:50:11;92719.00;;;-3.28;92.70
6395;BME280;3230;42.588;23.358;2024-01-30T02:52:36;92718.41;;;-3.22;92.88
6395;BME280;3230;42.588;23.358;2024-01-30T02:55:02;92720.59;;;-3.27;93.25
6395;BME280;3230;42.588;23.358;2024-01-30T02:57:28;92712.47;;;-3.22;93.70
6395;BME280;3230;42.588;23.358;2024-01-30T02:59:54;92717.50;;;-3.12;93.15
6395;BME280;3230;42.588;23.358;2024-01-30T03:02:19;92719.28;;;-3.13;92.69
6395;BME280;3230;42.588;23.358;2024-01-30T03:04:45;92716.25;;;-3.08;92.73
6395;BME280;3230;42.588;23.358;2024-01-30T03:07:10;92714.19;;;-3.05;92.57
6395;BME280;3230;42.588;23.358;2024-01-30T03:09:37;92712.03;;;-3.17;93.74
6395;BME280;3230;42.588;23.358;2024-01-30T03:12:03;92705.88;;;-3.25;94.44
6395;BME280;3230;42.588;23.358;2024-01-30T03:14:31;92703.59;;;-3.28;94.62
6395;BME280;3230;42.588;23.358;2024-01-30T03:16:57;92709.03;;;-3.31;94.86
6395;BME280;3230;42.588;23.358;2024-01-30T03:19:23;92716.13;;;-3.07;94.34
6395;BME280;3230;42.588;23.358;2024-01-30T03:21:48;92696.72;;;-3.09;93.71
6395;BME280;3230;42.588;23.358;2024-01-30T03:24:13;92713.63;;;-2.98;92.99
6395;BME280;3230;42.588;23.358;2024-01-30T03:26:39;92702.59;;;-2.91;91.90
6395;BME280;3230;42.588;23.358;2024-01-30T03:29:04;92706.00;;;-2.82;91.84
6395;BME280;3230;42.588;23.358;2024-01-30T03:31:30;92704.41;;;-2.83;91.75
6395;BME280;3230;42.588;23.358;2024-01-30T03:33:55;92707.56;;;-2.89;91.69
6395;BME280;3230;42.588;23.358;2024-01-30T03:36:21;92713.81;;;-2.92;91.53
6395;BME280;3230;42.588;23.358;2024-01-30T03:38:46;92710.13;;;-2.89;91.24
6395;BME280;3230;42.588;23.358;2024-01-30T03:41:11;92692.69;;;-2.85;89.85
6395;BME280;3230;42.588;23.358;2024-01-30T03:43:37;92704.91;;;-2.79;89.99
6395;BME280;3230;42.588;23.358;2024-01-30T03:46:03;92706.47;;;-2.86;90.83
6395;BME280;3230;42.588;23.358;2024-01-30T03:48:29;92704.13;;;-2.80;91.33
6395;BME280;3230;42.588;23.358;2024-01-30T03:50:54;92693.78;;;-2.88;91.00
6395;BME280;3230;42.588;23.358;2024-01-30T03:53:20;92692.22;;;-2.81;90.99
6395;BME280;3230;42.588;23.358;2024-01-30T03:55:45;92698.16;;;-2.80;91.27
6395;BME280;3230;42.588;23.358;2024-01-30T03:58:11;92692.41;;;-2.82;90.83
6395;BME280;3230;42.588;23.358;2024-01-30T04:00:36;92695.84;;;-2.92;90.53
6395;BME280;3230;42.588;23.358;2024-01-30T04:03:02;92696.63;;;-2.99;91.06
6395;BME280;3230;42.588;23.358;2024-01-30T04:05:27;92696.50;;;-2.90;90.40
6395;BME280;3230;42.588;23.358;2024-01-30T04:07:53;92698.69;;;-3.03;89.94
6395;BME280;3230;42.588;23.358;2024-01-30T04:10:18;92702.59;;;-2.91;89.39
6395;BME280;3230;42.588;23.358;2024-01-30T04:12:43;92695.34;;;-2.95;89.01
6395;BME280;3230;42.588;23.358;2024-01-30T04:15:09;92688.16;;;-2.92;89.16
6395;BME280;3230;42.588;23.358;2024-01-30T04:17:34;92688.44;;;-2.95;88.55
6395;BME280;3230;42.588;23.358;2024-01-30T04:20:00;92702.25;;;-2.96;88.09
6395;BME280;3230;42.588;23.358;2024-01-30T04:22:25;92695.19;;;-2.94;87.56
6395;BME280;3230;42.588;23.358;2024-01-30T04:24:51;92690.34;;;-3.23;88.88
6395;BME280;3230;42.588;23.358;2024-01-30T04:27:16;92697.53;;;-3.27;89.47
6395;BME280;3230;42.588;23.358;2024-01-30T04:29:42;92708.88;;;-3.11;89.35
6395;BME280;3230;42.588;23.358;2024-01-30T04:32:08;92707.50;;;-2.97;86.95
6395;BME280;3230;42.588;23.358;2024-01-30T04:34:36;92705.16;;;-2.91;86.66
6395;BME280;3230;42.588;23.358;2024-01-30T04:37:01;92710.13;;;-2.89;86.21
6395;BME280;3230;42.588;23.358;2024-01-30T04:39:27;92719.22;;;-2.95;85.93
6395;BME280;3230;42.588;23.358;2024-01-30T04:41:52;92705.63;;;-3.13;86.37
6395;BME280;3230;42.588;23.358;2024-01-30T04:44:18;92718.47;;;-3.13;86.65
6395;BME280;3230;42.588;23.358;2024-01-30T04:46:43;92711.50;;;-3.03;87.00
6395;BME280;3230;42.588;23.358;2024-01-30T04:49:08;92706.41;;;-2.95;86.53
6395;BME280;3230;42.588;23.358;2024-01-30T04:51:34;92712.31;;;-3.21;88.36
6395;BME280;3230;42.588;23.358;2024-01-30T04:54:05;92724.75;;;-3.08;87.44
6395;BME280;3230;42.588;23.358;2024-01-30T04:56:31;92719.72;;;-3.17;87.06
6395;BME280;3230;42.588;23.358;2024-01-30T04:58:56;92712.97;;;-3.18;86.61
6395;BME280;3230;42.588;23.358;2024-01-30T05:01:22;92718.88;;;-3.26;86.59
6395;BME280;3230;42.588;23.358;2024-01-30T05:03:47;92719.22;;;-3.39;86.99
6395;BME280;3230;42.588;23.358;2024-01-30T05:06:12;92722.22;;;-3.44;86.86
6395;BME280;3230;42.588;23.358;2024-01-30T05:08:38;92708.38;;;-3.51;86.86
6395;BME280;3230;42.588;23.358;2024-01-30T05:11:05;92716.81;;;-3.59;87.28
6395;BME280;3230;42.588;23.358;2024-01-30T05:13:31;92719.38;;;-3.77;87.18
6395;BME280;3230;42.588;23.358;2024-01-30T05:15:56;92727.56;;;-3.73;86.18
6395;BME280;3230;42.588;23.358;2024-01-30T05:18:22;92728.88;;;-3.87;85.33
6395;BME280;3230;42.588;23.358;2024-01-30T05:20:47;92724.28;;;-3.83;85.31
6395;BME280;3230;42.588;23.358;2024-01-30T05:23:12;92718.75;;;-3.89;85.82
6395;BME280;3230;42.588;23.358;2024-01-30T05:25:38;92724.19;;;-3.92;85.87
6395;BME280;3230;42.588;23.358;2024-01-30T05:28:03;92719.75;;;-3.90;86.34
6395;BME280;3230;42.588;23.358;2024-01-30T05:30:29;92732.03;;;-3.93;87.32
6395;BME280;3230;42.588;23.358;2024-01-30T05:32:54;92738.31;;;-3.88;87.80
6395;BME280;3230;42.588;23.358;2024-01-30T05:35:20;92734.22;;;-3.80;87.74
6395;BME280;3230;42.588;23.358;2024-01-30T05:37:48;92736.56;;;-3.69;88.13
6395;BME280;3230;42.588;23.358;2024-01-30T05:40:14;92736.50;;;-3.77;88.34
6395;BME280;3230;42.588;23.358;2024-01-30T05:42:39;92737.38;;;-3.68;88.82
6395;BME280;3230;42.588;23.358;2024-01-30T05:45:05;92739.22;;;-3.61;87.87
6395;BME280;3230;42.588;23.358;2024-01-30T05:47:30;92748.66;;;-3.61;87.51
6395;BME280;3230;42.588;23.358;2024-01-30T05:49:56;92745.81;;;-3.40;86.82
6395;BME280;3230;42.588;23.358;2024-01-30T05:52:21;92744.28;;;-3.33;86.17
6395;BME280;3230;42.588;23.358;2024-01-30T05:54:47;92738.41;;;-3.25;85.85
6395;BME280;3230;42.588;23.358;2024-01-30T05:57:12;92733.63;;;-3.02;85.41
6395;BME280;3230;42.588;23.358;2024-01-30T05:59:38;92737.06;;;-2.93;85.90
6395;BME280;3230;42.588;23.358;2024-01-30T06:02:03;92741.28;;;-2.58;85.74
6395;BME280;3230;42.588;23.358;2024-01-30T06:04:28;92751.69;;;-1.98;82.12
6395;BME280;3230;42.588;23.358;2024-01-30T06:06:54;92740.59;;;-1.99;80.20
6395;BME280;3230;42.588;23.358;2024-01-30T06:09:19;92743.22;;;-2.25;81.09
6395;BME280;3230;42.588;23.358;2024-01-30T06:11:45;92748.94;;;-1.97;78.74
6395;BME280;3230;42.588;23.358;2024-01-30T06:14:10;92745.44;;;-1.96;77.37
6395;BME280;3230;42.588;23.358;2024-01-30T06:16:36;92746.22;;;-2.91;80.32
6395;BME280;3230;42.588;23.358;2024-01-30T06:19:01;92741.97;;;-3.00;83.53
6395;BME280;3230;42.588;23.358;2024-01-30T06:21:27;92747.50;;;-2.86;84.47
6395;BME280;3230;42.588;23.358;2024-01-30T06:23:52;92752.56;;;-2.95;84.00
6395;BME280;3230;42.588;23.358;2024-01-30T06:26:17;92747.91;;;-2.73;83.17
6395;BME280;3230;42.588;23.358;2024-01-30T06:28:43;92746.19;;;-2.38;81.34
6395;BME280;3230;42.588;23.358;2024-01-30T06:31:09;92748.25;;;-2.42;81.84
6395;BME280;3230;42.588;23.358;2024-01-30T06:33:35;92748.09;;;-2.40;82.48
6395;BME280;3230;42.588;23.358;2024-01-30T06:36:00;92748.69;;;-2.20;82.46
6395;BME280;3230;42.588;23.358;2024-01-30T06:38:25;92747.66;;;-2.01;80.74
6395;BME280;3230;42.588;23.358;2024-01-30T06:40:51;92763.47;;;-1.71;77.05
6395;BME280;3230;42.588;23.358;2024-01-30T06:43:16;92759.50;;;-1.49;74.83
6395;BME280;3230;42.588;23.358;2024-01-30T06:45:42;92763.25;;;-1.35;74.30
6395;BME280;3230;42.588;23.358;2024-01-30T06:48:08;92756.44;;;-1.69;73.75
6395;BME280;3230;42.588;23.358;2024-01-30T06:50:33;92762.84;;;-1.65;75.59
6395;BME280;3230;42.588;23.358;2024-01-30T06:52:58;92762.03;;;-1.73;76.19
6395;BME280;3230;42.588;23.358;2024-01-30T06:55:24;92759.28;;;-1.80;76.50
6395;BME280;3230;42.588;23.358;2024-01-30T06:57:49;92770.38;;;-1.80;76.34
6395;BME280;3230;42.588;23.358;2024-01-30T07:00:15;92776.41;;;-1.46;75.36
6395;BME280;3230;42.588;23.358;2024-01-30T07:02:41;92772.91;;;-1.20;72.29
6395;BME280;3230;42.588;23.358;2024-01-30T07:05:07;92763.88;;;-1.41;71.18
6395;BME280;3230;42.588;23.358;2024-01-30T07:07:32;92776.06;;;-1.51;71.37
6395;BME280;3230;42.588;23.358;2024-01-30T07:09:58;92765.78;;;-1.51;70.50
6395;BME280;3230;42.588;23.358;2024-01-30T07:12:23;92777.25;;;-1.29;69.47
6395;BME280;3230;42.588;23.358;2024-01-30T07:14:51;92764.16;;;-1.61;68.25
6395;BME280;3230;42.588;23.358;2024-01-30T07:17:17;92775.91;;;-1.58;70.25
6395;BME280;3230;42.588;23.358;2024-01-30T07:19:42;92775.13;;;-1.93;71.04
6395;BME280;3230;42.588;23.358;2024-01-30T07:22:08;92767.22;;;-2.08;72.94
6395;BME280;3230;42.588;23.358;2024-01-30T07:24:33;92763.69;;;-2.07;73.80
6395;BME280;3230;42.588;23.358;2024-01-30T07:26:59;92779.72;;;-1.62;71.77
6395;BME280;3230;42.588;23.358;2024-01-30T07:29:24;92779.94;;;-1.47;68.66
6395;BME280;3230;42.588;23.358;2024-01-30T07:31:50;92768.03;;;-1.48;71.00
6395;BME280;3230;42.588;23.358;2024-01-30T07:34:15;92774.19;;;-0.42;67.32
6395;BME280;3230;42.588;23.358;2024-01-30T07:36:41;92771.19;;;0.03;62.94
6395;BME280;3230;42.588;23.358;2024-01-30T07:39:07;92772.09;;;0.81;58.91
6395;BME280;3230;42.588;23.358;2024-01-30T07:41:38;92778.50;;;1.70;56.37
6395;BME280;3230;42.588;23.358;2024-01-30T07:44:04;92782.50;;;2.99;52.91
6395;BME280;3230;42.588;23.358;2024-01-30T07:46:29;92781.38;;;2.86;51.49
6395;BME280;3230;42.588;23.358;2024-01-30T07:48:55;92785.09;;;3.99;47.40
6395;BME280;3230;42.588;23.358;2024-01-30T07:51:22;92787.16;;;4.94;46.08
6395;BME280;3230;42.588;23.358;2024-01-30T07:53:53;92783.47;;;4.26;46.80
6395;BME280;3230;42.588;23.358;2024-01-30T07:56:19;92782.72;;;3.97;46.53
6395;BME280;3230;42.588;23.358;2024-01-30T07:58:44;92781.63;;;5.24;44.29
6395;BME280;3230;42.588;23.358;2024-01-30T08:01:10;92784.91;;;6.72;40.52
6395;BME280;3230;42.588;23.358;2024-01-30T08:03:35;92783.50;;;7.79;38.83
6395;BME280;3230;42.588;23.358;2024-01-30T08:06:02;92775.84;;;7.59;37.35
6395;BME280;3230;42.588;23.358;2024-01-30T08:08:28;92755.22;;;6.80;37.79
6395;BME280;3230;42.588;23.358;2024-01-30T08:10:53;92761.75;;;4.83;42.62
6395;BME280;3230;42.588;23.358;2024-01-30T08:13:19;92755.28;;;6.60;40.65
6395;BME280;3230;42.588;23.358;2024-01-30T08:15:44;92746.84;;;7.10;38.69
6395;BME280;3230;42.588;23.358;2024-01-30T08:18:10;92729.25;;;7.30;36.95
6395;BME280;3230;42.588;23.358;2024-01-30T08:20:35;92755.81;;;7.78;37.11
6395;BME280;3230;42.588;23.358;2024-01-30T08:23:00;92755.38;;;8.50;35.37
6395;BME280;3230;42.588;23.358;2024-01-30T08:25:26;92755.84;;;7.14;36.68
6395;BME280;3230;42.588;23.358;2024-01-30T08:27:51;92755.19;;;6.21;38.68
6395;BME280;3230;42.588;23.358;2024-01-30T08:30:17;92751.41;;;5.97;38.90
6395;BME280;3230;42.588;23.358;2024-01-30T08:32:42;92759.00;;;3.72;44.13
6395;BME280;3230;42.588;23.358;2024-01-30T08:35:08;92757.69;;;4.67;44.50
6395;BME280;3230;42.588;23.358;2024-01-30T08:37:34;92756.25;;;6.00;40.32
6395;BME280;3230;42.588;23.358;2024-01-30T08:39:59;92763.81;;;5.21;40.35
6395;BME280;3230;42.588;23.358;2024-01-30T08:42:25;92759.47;;;4.18;42.41
6395;BME280;3230;42.588;23.358;2024-01-30T08:44:51;92762.28;;;3.59;44.36
6395;BME280;3230;42.588;23.358;2024-01-30T08:47:18;92766.25;;;3.83;43.92
6395;BME280;3230;42.588;23.358;2024-01-30T08:49:44;92764.38;;;3.20;44.55
6395;BME280;3230;42.588;23.358;2024-01-30T08:52:13;92762.59;;;2.63;46.55
6395;BME280;3230;42.588;23.358;2024-01-30T08:54:38;92759.56;;;1.92;48.46
6395;BME280;3230;42.588;23.358;2024-01-30T08:57:04;92757.47;;;2.03;48.10
6395;BME280;3230;42.588;23.358;2024-01-30T08:59:30;92759.50;;;2.52;47.64
6395;BME280;3230;42.588;23.358;2024-01-30T09:01:55;92760.94;;;2.40;48.64
6395;BME280;3230;42.588;23.358;2024-01-30T09:04:23;92755.84;;;1.57;49.54
6395;BME280;3230;42.588;23.358;2024-01-30T09:06:48;92755.56;;;1.52;50.04
6395;BME280;3230;42.588;23.358;2024-01-30T09:09:14;92752.25;;;1.43;51.68
6395;BME280;3230;42.588;23.358;2024-01-30T09:11:40;92748.38;;;1.92;50.29
6395;BME280;3230;42.588;23.358;2024-01-30T09:14:05;92753.75;;;1.37;52.06
6395;BME280;3230;42.588;23.358;2024-01-30T09:16:31;92737.06;;;0.87;52.90
6395;BME280;3230;42.588;23.358;2024-01-30T09:18:56;92736.31;;;1.01;53.03
6395;BME280;3230;42.588;23.358;2024-01-30T09:21:21;92744.66;;;0.80;55.17
6395;BME280;3230;42.588;23.358;2024-01-30T09:23:47;92743.97;;;0.86;54.08
6395;BME280;3230;42.588;23.358;2024-01-30T09:26:21;92729.03;;;1.05;56.49
6395;BME280;3230;42.588;23.358;2024-01-30T09:28:47;92731.97;;;1.17;55.32
6395;BME280;3230;42.588;23.358;2024-01-30T09:31:12;92741.34;;;1.18;53.77
6395;BME280;3230;42.588;23.358;2024-01-30T09:33:38;92743.59;;;0.98;53.97
6395;BME280;3230;42.588;23.358;2024-01-30T09:36:05;92740.72;;;0.38;56.12
6395;BME280;3230;42.588;23.358;2024-01-30T09:38:30;92737.09;;;0.55;55.76
6395;BME280;3230;42.588;23.358;2024-01-30T09:40:56;92741.97;;;0.50;57.06
6395;BME280;3230;42.588;23.358;2024-01-30T09:43:24;92733.84;;;0.61;56.01
6395;BME280;3230;42.588;23.358;2024-01-30T09:45:50;92731.22;;;0.70;59.40
6395;BME280;3230;42.588;23.358;2024-01-30T09:48:15;92725.91;;;0.86;55.52
6395;BME280;3230;42.588;23.358;2024-01-30T09:50:41;92731.53;;;0.90;54.59
6395;BME280;3230;42.588;23.358;2024-01-30T09:53:08;92730.28;;;0.86;55.93
6395;BME280;3230;42.588;23.358;2024-01-30T09:55:35;92726.28;;;0.83;56.42
6395;BME280;3230;42.588;23.358;2024-01-30T09:58:01;92734.16;;;0.58;58.02
6395;BME280;3230;42.588;23.358;2024-01-30T10:00:27;92722.50;;;0.71;57.75
6395;BME280;3230;42.588;23.358;2024-01-30T10:02:53;92728.22;;;0.81;56.20
6395;BME280;3230;42.588;23.358;2024-01-30T10:05:19;92716.72;;;1.07;54.38
6395;BME280;3230;42.588;23.358;2024-01-30T10:07:57;92722.88;;;1.44;55.18
6395;BME280;3230;42.588;23.358;2024-01-30T10:10:23;92720.63;;;1.56;53.11
6395;BME280;3230;42.588;23.358;2024-01-30T10:12:49;92718.41;;;1.38;53.26
6395;BME280;3230;42.588;23.358;2024-01-30T10:15:14;92709.19;;;1.20;54.46
6395;BME280;3230;42.588;23.358;2024-01-30T10:17:40;92708.25;;;0.75;54.85
6395;BME280;3230;42.588;23.358;2024-01-30T10:20:05;92712.41;;;0.61;57.37
6395;BME280;3230;42.588;23.358;2024-01-30T10:22:33;92712.41;;;0.61;57.42
6395;BME280;3230;42.588;23.358;2024-01-30T10:24:58;92711.53;;;0.69;59.18
6395;BME280;3230;42.588;23.358;2024-01-30T10:27:28;92712.19;;;0.71;57.70
6395;BME280;3230;42.588;23.358;2024-01-30T10:29:55;92719.03;;;0.78;58.44
6395;BME280;3230;42.588;23.358;2024-01-30T10:32:21;92716.41;;;0.63;57.28
6395;BME280;3230;42.588;23.358;2024-01-30T10:34:47;92715.03;;;0.53;58.07
6395;BME280;3230;42.588;23.358;2024-01-30T10:37:12;92718.41;;;0.53;58.85
6395;BME280;3230;42.588;23.358;2024-01-30T10:39:41;92719.38;;;0.52;58.67
6395;BME280;3230;42.588;23.358;2024-01-30T10:42:15;92700.63;;;0.82;58.09
6395;BME280;3230;42.588;23.358;2024-01-30T10:47:12;92720.03;;;1.39;54.91
6395;BME280;3230;42.588;23.358;2024-01-30T10:49:41;92717.16;;;1.34;53.95
6395;BME280;3230;42.588;23.358;2024-01-30T10:52:09;92716.81;;;1.67;53.85
6395;BME280;3230;42.588;23.358;2024-01-30T10:54:36;92709.50;;;1.55;54.43
6395;BME280;3230;42.588;23.358;2024-01-30T10:57:03;92709.25;;;1.35;54.74
6395;BME280;3230;42.588;23.358;2024-01-30T10:59:30;92697.31;;;1.34;53.98
6395;BME280;3230;42.588;23.358;2024-01-30T11:01:58;92701.94;;;1.39;55.10
6395;BME280;3230;42.588;23.358;2024-01-30T11:04:24;92701.56;;;1.27;55.98
6395;BME280;3230;42.588;23.358;2024-01-30T11:06:51;92702.09;;;1.22;56.48
6395;BME280;3230;42.588;23.358;2024-01-30T11:09:17;92699.22;;;1.17;57.34
6395;BME280;3230;42.588;23.358;2024-01-30T11:11:57;92696.72;;;1.09;56.36
6395;BME280;3230;42.588;23.358;2024-01-30T11:14:26;92700.47;;;0.83;59.20
6395;BME280;3230;42.588;23.358;2024-01-30T11:16:52;92690.97;;;0.99;57.82
6395;BME280;3230;42.588;23.358;2024-01-30T11:19:30;92693.13;;;1.48;54.87
6395;BME280;3230;42.588;23.358;2024-01-30T11:21:57;92692.97;;;1.65;55.42
6395;BME280;3230;42.588;23.358;2024-01-30T11:24:25;92688.31;;;1.45;55.44
6395;BME280;3230;42.588;23.358;2024-01-30T11:26:58;92694.53;;;1.36;56.65
6395;BME280;3230;42.588;23.358;2024-01-30T11:29:25;92686.06;;;1.57;55.91
6395;BME280;3230;42.588;23.358;2024-01-30T11:31:53;92691.78;;;1.82;56.93
6395;BME280;3230;42.588;23.358;2024-01-30T11:34:20;92678.88;;;1.52;55.76
6395;BME280;3230;42.588;23.358;2024-01-30T11:36:51;92685.56;;;1.47;55.99
6395;BME280;3230;42.588;23.358;2024-01-30T11:39:19;92690.38;;;1.65;54.62
6395;BME280;3230;42.588;23.358;2024-01-30T11:41:46;92695.63;;;1.86;55.45
6395;BME280;3230;42.588;23.358;2024-01-30T11:44:11;92687.38;;;2.13;54.02
6395;BME280;3230;42.588;23.358;2024-01-30T11:46:37;92684.56;;;1.78;54.27
6395;BME280;3230;42.588;23.358;2024-01-30T11:49:02;92684.31;;;1.72;54.53
6395;BME280;3230;42.588;23.358;2024-01-30T11:51:28;92687.88;;;1.56;56.18
6395;BME280;3230;42.588;23.358;2024-01-30T11:53:57;92688.31;;;1.45;58.21
6395;BME280;3230;42.588;23.358;2024-01-30T11:56:23;92676.38;;;1.74;54.94
6395;BME280;3230;42.588;23.358;2024-01-30T11:58:50;92677.88;;;1.98;53.63
6395;BME280;3230;42.588;23.358;2024-01-30T12:01:17;92683.97;;;1.75;54.80
6395;BME280;3230;42.588;23.358;2024-01-30T12:03:48;92660.69;;;1.60;54.20
6395;BME280;3230;42.588;23.358;2024-01-30T12:06:15;92672.53;;;1.40;55.99
6395;BME280;3230;42.588;23.358;2024-01-30T12:08:41;92671.38;;;1.72;56.24
6395;BME280;3230;42.588;23.358;2024-01-30T12:11:07;92653.00;;;1.82;54.98
6395;BME280;3230;42.588;23.358;2024-01-30T12:13:32;92655.16;;;1.34;56.08
6395;BME280;3230;42.588;23.358;2024-01-30T12:15:58;92651.00;;;0.94;59.56
6395;BME280;3230;42.588;23.358;2024-01-30T12:18:24;92647.06;;;1.37;56.55
6395;BME280;3230;42.588;23.358;2024-01-30T12:20:59;92642.31;;;1.25;56.88
6395;BME280;3230;42.588;23.358;2024-01-30T12:23:26;92645.41;;;1.06;58.14
6395;BME280;3230;42.588;23.358;2024-01-30T12:25:52;92638.63;;;0.90;58.92
6395;BME280;3230;42.588;23.358;2024-01-30T12:28:18;92639.78;;;0.87;60.88
6395;BME280;3230;42.588;23.358;2024-01-30T12:30:43;92633.50;;;0.67;60.33
6395;BME280;3230;42.588;23.358;2024-01-30T12:33:09;92637.09;;;0.81;60.64
6395;BME280;3230;42.588;23.358;2024-01-30T12:35:35;92624.78;;;0.68;59.94
6395;BME280;3230;42.588;23.358;2024-01-30T12:38:01;92622.97;;;0.53;60.83
6395;BME280;3230;42.588;23.358;2024-01-30T12:40:27;92624.69;;;0.38;61.32
6395;BME280;3230;42.588;23.358;2024-01-30T12:42:52;92615.84;;;0.55;61.45
6395;BME280;3230;42.588;23.358;2024-01-30T12:45:18;92617.16;;;0.28;60.16
6395;BME280;3230;42.588;23.358;2024-01-30T12:47:47;92622.50;;;0.03;63.63
6395;BME280;3230;42.588;23.358;2024-01-30T12:50:13;92614.13;;;0.01;63.78
6395;BME280;3230;42.588;23.358;2024-01-30T12:52:41;92609.53;;;-0.12;64.61
6395;BME280;3230;42.588;23.358;2024-01-30T12:55:06;92614.00;;;-0.06;66.25
6395;BME280;3230;42.588;23.358;2024-01-30T12:57:32;92609.19;;;-0.09;65.75
6395;BME280;3230;42.588;23.358;2024-01-30T13:00:00;92620.44;;;-0.10;65.68
6395;BME280;3230;42.588;23.358;2024-01-30T13:02:25;92608.09;;;-0.14;66.45
6395;BME280;3230;42.588;23.358;2024-01-30T13:04:55;92598.25;;;-0.11;66.53
6395;BME280;3230;42.588;23.358;2024-01-30T13:07:20;92599.72;;;-0.17;66.34
6395;BME280;3230;42.588;23.358;2024-01-30T13:09:46;92607.06;;;-0.05;66.37
6395;BME280;3230;42.588;23.358;2024-01-30T13:12:12;92594.94;;;0.04;67.33
6395;BME280;3230;42.588;23.358;2024-01-30T13:14:38;92606.69;;;0.06;66.14